sensor_id;sensor_type;location;lat;lon;timestamp;P1;durP1;ratioP1;P2;durP2;ratioP2
4089;SDS011;2059;48.538;12.146;2023-07-13T00:02:41;2.90;;;2.70;;
4089;SDS011;2059;48.538;12.146;2023-07-13T00:07:43;2.60;;;2.50;;
4089;SDS011;2059;48.538;12.146;2023-07-13T00:12:47;3.10;;;2.80;;
4089;SDS011;2059;48.538;12.146;2023-07-13T00:17:49;3.67;;;3.07;;
4089;SDS011;2059;48.538;12.146;2023-07-13T00:22:52;2.80;;;2.70;;
4089;SDS011;2059;48.538;12.146;2023-07-13T00:27:55;2.90;;;2.80;;
4089;SDS011;2059;48.538;12.146;2023-07-13T00:32:57;3.03;;;2.83;;
4089;SDS011;2059;48.538;12.146;2023-07-13T00:38:01;3.37;;;3.17;;
4089;SDS011;2059;48.538;12.146;2023-07-13T00:43:08;2.90;;;2.70;;
4089;SDS011;2059;48.538;12.146;2023-07-13T00:48:13;3.30;;;3.00;;
4089;SDS011;2059;48.538;12.146;2023-07-13T00:53:17;3.50;;;3.20;;
4089;SDS011;2059;48.538;12.146;2023-07-13T00:58:22;4.63;;;2.83;;
4089;SDS011;2059;48.538;12.146;2023-07-13T01:03:24;2.67;;;2.53;;
4089;SDS011;2059;48.538;12.146;2023-07-13T01:08:26;3.03;;;2.83;;
4089;SDS011;2059;48.538;12.146;2023-07-13T01:13:29;3.10;;;2.90;;
4089;SDS011;2059;48.538;12.146;2023-07-13T01:18:31;2.87;;;2.77;;
4089;SDS011;2059;48.538;12.146;2023-07-13T01:23:34;3.20;;;3.00;;
4089;SDS011;2059;48.538;12.146;2023-07-13T01:28:36;3.50;;;3.20;;
4089;SDS011;2059;48.538;12.146;2023-07-13T01:33:39;3.27;;;3.00;;
4089;SDS011;2059;48.538;12.146;2023-07-13T01:38:43;3.33;;;3.13;;
4089;SDS011;2059;48.538;12.146;2023-07-13T01:43:44;3.73;;;3.10;;
4089;SDS011;2059;48.538;12.146;2023-07-13T01:48:46;2.83;;;2.73;;
4089;SDS011;2059;48.538;12.146;2023-07-13T01:53:49;2.87;;;2.67;;
4089;SDS011;2059;48.538;12.146;2023-07-13T01:58:51;3.10;;;2.87;;
4089;SDS011;2059;48.538;12.146;2023-07-13T02:03:53;2.73;;;2.63;;
4089;SDS011;2059;48.538;12.146;2023-07-13T02:08:57;2.50;;;2.40;;
4089;SDS011;2059;48.538;12.146;2023-07-13T02:13:58;2.83;;;2.73;;
4089;SDS011;2059;48.538;12.146;2023-07-13T02:19:00;4.43;;;3.33;;
4089;SDS011;2059;48.538;12.146;2023-07-13T02:24:04;3.13;;;2.93;;
4089;SDS011;2059;48.538;12.146;2023-07-13T02:29:06;9.70;;;2.90;;
4089;SDS011;2059;48.538;12.146;2023-07-13T02:34:08;2.70;;;2.60;;
4089;SDS011;2059;48.538;12.146;2023-07-13T02:39:11;2.70;;;2.60;;
4089;SDS011;2059;48.538;12.146;2023-07-13T02:44:13;2.80;;;2.60;;
4089;SDS011;2059;48.538;12.146;2023-07-13T02:49:15;2.53;;;2.43;;
4089;SDS011;2059;48.538;12.146;2023-07-13T02:54:19;2.30;;;2.20;;
4089;SDS011;2059;48.538;12.146;2023-07-13T02:59:20;2.60;;;2.50;;
4089;SDS011;2059;48.538;12.146;2023-07-13T03:04:22;4.27;;;2.80;;
4089;SDS011;2059;48.538;12.146;2023-07-13T03:09:25;2.90;;;2.70;;
4089;SDS011;2059;48.538;12.146;2023-07-13T03:14:27;2.83;;;2.73;;
4089;SDS011;2059;48.538;12.146;2023-07-13T03:19:30;2.80;;;2.60;;
4089;SDS011;2059;48.538;12.146;2023-07-13T03:24:33;2.73;;;2.63;;
4089;SDS011;2059;48.538;12.146;2023-07-13T03:29:37;3.30;;;3.10;;
4089;SDS011;2059;48.538;12.146;2023-07-13T03:34:39;2.93;;;2.73;;
4089;SDS011;2059;48.538;12.146;2023-07-13T03:39:42;2.93;;;2.83;;
4089;SDS011;2059;48.538;12.146;2023-07-13T03:44:44;3.10;;;2.83;;
4089;SDS011;2059;48.538;12.146;2023-07-13T03:49:52;3.10;;;2.90;;
4089;SDS011;2059;48.538;12.146;2023-07-13T03:54:55;3.70;;;3.27;;
4089;SDS011;2059;48.538;12.146;2023-07-13T03:59:57;2.80;;;2.70;;
4089;SDS011;2059;48.538;12.146;2023-07-13T04:04:58;2.90;;;2.80;;
4089;SDS011;2059;48.538;12.146;2023-07-13T04:10:02;3.20;;;3.00;;
4089;SDS011;2059;48.538;12.146;2023-07-13T04:15:04;2.90;;;2.80;;
4089;SDS011;2059;48.538;12.146;2023-07-13T04:20:07;2.90;;;2.80;;
4089;SDS011;2059;48.538;12.146;2023-07-13T04:25:10;3.30;;;3.10;;
4089;SDS011;2059;48.538;12.146;2023-07-13T04:30:12;3.20;;;3.00;;
4089;SDS011;2059;48.538;12.146;2023-07-13T04:35:14;3.30;;;3.10;;
4089;SDS011;2059;48.538;12.146;2023-07-13T04:40:17;3.03;;;2.90;;
4089;SDS011;2059;48.538;12.146;2023-07-13T04:45:19;3.37;;;3.07;;
4089;SDS011;2059;48.538;12.146;2023-07-13T04:50:25;3.10;;;2.90;;
4089;SDS011;2059;48.538;12.146;2023-07-13T04:55:31;3.30;;;3.10;;
4089;SDS011;2059;48.538;12.146;2023-07-13T05:00:33;3.20;;;3.00;;
4089;SDS011;2059;48.538;12.146;2023-07-13T05:05:35;2.87;;;2.77;;
4089;SDS011;2059;48.538;12.146;2023-07-13T05:10:38;2.57;;;2.47;;
4089;SDS011;2059;48.538;12.146;2023-07-13T05:15:40;3.57;;;3.37;;
4089;SDS011;2059;48.538;12.146;2023-07-13T05:20:41;3.37;;;3.17;;
4089;SDS011;2059;48.538;12.146;2023-07-13T05:25:45;3.50;;;3.30;;
4089;SDS011;2059;48.538;12.146;2023-07-13T05:30:47;3.23;;;3.00;;
4089;SDS011;2059;48.538;12.146;2023-07-13T05:35:49;3.40;;;3.20;;
4089;SDS011;2059;48.538;12.146;2023-07-13T05:40:53;3.43;;;3.23;;
4089;SDS011;2059;48.538;12.146;2023-07-13T05:45:56;3.50;;;3.30;;
4089;SDS011;2059;48.538;12.146;2023-07-13T05:50:58;3.30;;;3.20;;
4089;SDS011;2059;48.538;12.146;2023-07-13T05:56:01;4.00;;;3.70;;
4089;SDS011;2059;48.538;12.146;2023-07-13T06:01:03;3.90;;;3.70;;
4089;SDS011;2059;48.538;12.146;2023-07-13T06:06:07;3.73;;;3.53;;
4089;SDS011;2059;48.538;12.146;2023-07-13T06:11:12;3.57;;;3.37;;
4089;SDS011;2059;48.538;12.146;2023-07-13T06:16:16;3.60;;;3.50;;
4089;SDS011;2059;48.538;12.146;2023-07-13T06:21:19;3.93;;;3.63;;
4089;SDS011;2059;48.538;12.146;2023-07-13T06:26:23;3.67;;;3.53;;
4089;SDS011;2059;48.538;12.146;2023-07-13T06:31:25;3.90;;;3.70;;
4089;SDS011;2059;48.538;12.146;2023-07-13T06:36:27;3.63;;;3.53;;
4089;SDS011;2059;48.538;12.146;2023-07-13T06:41:30;3.90;;;3.70;;
4089;SDS011;2059;48.538;12.146;2023-07-13T06:46:33;4.27;;;4.07;;
4089;SDS011;2059;48.538;12.146;2023-07-13T06:51:34;4.10;;;3.90;;
4089;SDS011;2059;48.538;12.146;2023-07-13T06:56:37;4.17;;;3.97;;
4089;SDS011;2059;48.538;12.146;2023-07-13T07:01:39;4.33;;;4.13;;
4089;SDS011;2059;48.538;12.146;2023-07-13T07:06:41;3.90;;;3.70;;
4089;SDS011;2059;48.538;12.146;2023-07-13T07:11:44;4.40;;;4.20;;
4089;SDS011;2059;48.538;12.146;2023-07-13T07:16:46;4.20;;;4.00;;
4089;SDS011;2059;48.538;12.146;2023-07-13T07:21:47;4.00;;;3.80;;
4089;SDS011;2059;48.538;12.146;2023-07-13T07:26:50;4.33;;;4.13;;
4089;SDS011;2059;48.538;12.146;2023-07-13T07:31:52;4.03;;;3.93;;
4089;SDS011;2059;48.538;12.146;2023-07-13T07:36:54;8.50;;;8.00;;
4089;SDS011;2059;48.538;12.146;2023-07-13T07:41:59;4.40;;;4.20;;
4089;SDS011;2059;48.538;12.146;2023-07-13T07:47:01;4.00;;;3.80;;
4089;SDS011;2059;48.538;12.146;2023-07-13T07:52:03;4.90;;;4.60;;
4089;SDS011;2059;48.538;12.146;2023-07-13T07:57:07;6.40;;;6.10;;
4089;SDS011;2059;48.538;12.146;2023-07-13T08:02:09;4.67;;;4.47;;
4089;SDS011;2059;48.538;12.146;2023-07-13T08:07:12;4.70;;;4.30;;
4089;SDS011;2059;48.538;12.146;2023-07-13T08:12:15;4.10;;;4.00;;
4089;SDS011;2059;48.538;12.146;2023-07-13T08:17:17;4.40;;;4.23;;
4089;SDS011;2059;48.538;12.146;2023-07-13T08:22:19;4.47;;;4.27;;
4089;SDS011;2059;48.538;12.146;2023-07-13T08:27:22;4.70;;;4.50;;
4089;SDS011;2059;48.538;12.146;2023-07-13T08:32:25;4.23;;;4.03;;
4089;SDS011;2059;48.538;12.146;2023-07-13T08:37:26;4.40;;;4.30;;
4089;SDS011;2059;48.538;12.146;2023-07-13T08:42:33;4.40;;;4.20;;
4089;SDS011;2059;48.538;12.146;2023-07-13T08:47:40;4.10;;;3.90;;
4089;SDS011;2059;48.538;12.146;2023-07-13T08:52:46;4.50;;;4.30;;
4089;SDS011;2059;48.538;12.146;2023-07-13T08:57:53;4.57;;;4.37;;
4089;SDS011;2059;48.538;12.146;2023-07-13T09:03:01;4.10;;;4.00;;
4089;SDS011;2059;48.538;12.146;2023-07-13T09:08:26;4.90;;;4.70;;
4089;SDS011;2059;48.538;12.146;2023-07-13T09:13:43;4.10;;;3.90;;
4089;SDS011;2059;48.538;12.146;2023-07-13T09:18:52;4.00;;;3.90;;
4089;SDS011;2059;48.538;12.146;2023-07-13T09:24:01;4.30;;;4.10;;
4089;SDS011;2059;48.538;12.146;2023-07-13T09:29:18;4.27;;;4.07;;
4089;SDS011;2059;48.538;12.146;2023-07-13T09:34:25;3.97;;;3.77;;
4089;SDS011;2059;48.538;12.146;2023-07-13T09:39:27;4.20;;;4.00;;
4089;SDS011;2059;48.538;12.146;2023-07-13T09:44:35;4.40;;;4.20;;
4089;SDS011;2059;48.538;12.146;2023-07-13T09:49:37;4.07;;;3.87;;
4089;SDS011;2059;48.538;12.146;2023-07-13T09:54:39;4.93;;;4.73;;
4089;SDS011;2059;48.538;12.146;2023-07-13T09:59:47;4.43;;;4.23;;
4089;SDS011;2059;48.538;12.146;2023-07-13T10:04:55;3.50;;;3.40;;
4089;SDS011;2059;48.538;12.146;2023-07-13T10:09:58;3.93;;;3.83;;
4089;SDS011;2059;48.538;12.146;2023-07-13T10:15:04;3.70;;;3.60;;
4089;SDS011;2059;48.538;12.146;2023-07-13T10:20:16;4.17;;;4.00;;
4089;SDS011;2059;48.538;12.146;2023-07-13T10:25:18;3.60;;;3.50;;
4089;SDS011;2059;48.538;12.146;2023-07-13T10:30:24;3.60;;;3.40;;
4089;SDS011;2059;48.538;12.146;2023-07-13T10:35:29;3.30;;;3.20;;
4089;SDS011;2059;48.538;12.146;2023-07-13T10:40:33;3.20;;;3.10;;
4089;SDS011;2059;48.538;12.146;2023-07-13T10:45:39;3.67;;;3.57;;
4089;SDS011;2059;48.538;12.146;2023-07-13T10:50:43;4.40;;;3.70;;
4089;SDS011;2059;48.538;12.146;2023-07-13T10:55:55;3.83;;;3.63;;
4089;SDS011;2059;48.538;12.146;2023-07-13T11:01:04;3.90;;;3.80;;
4089;SDS011;2059;48.538;12.146;2023-07-13T11:06:11;3.40;;;3.30;;
4089;SDS011;2059;48.538;12.146;2023-07-13T11:11:32;3.93;;;3.73;;
4089;SDS011;2059;48.538;12.146;2023-07-13T11:16:46;3.80;;;3.70;;
4089;SDS011;2059;48.538;12.146;2023-07-13T11:22:10;4.00;;;3.90;;
4089;SDS011;2059;48.538;12.146;2023-07-13T11:27:21;4.90;;;4.70;;
4089;SDS011;2059;48.538;12.146;2023-07-13T11:32:30;5.10;;;4.90;;
4089;SDS011;2059;48.538;12.146;2023-07-13T11:37:32;5.67;;;5.37;;
4089;SDS011;2059;48.538;12.146;2023-07-13T11:42:34;3.70;;;3.60;;
4089;SDS011;2059;48.538;12.146;2023-07-13T11:47:40;4.10;;;3.90;;
4089;SDS011;2059;48.538;12.146;2023-07-13T11:52:43;3.90;;;3.70;;
4089;SDS011;2059;48.538;12.146;2023-07-13T11:57:47;6.47;;;4.03;;
4089;SDS011;2059;48.538;12.146;2023-07-13T12:02:54;3.83;;;3.73;;
4089;SDS011;2059;48.538;12.146;2023-07-13T12:07:59;4.23;;;4.03;;
4089;SDS011;2059;48.538;12.146;2023-07-13T12:13:09;4.10;;;4.00;;
4089;SDS011;2059;48.538;12.146;2023-07-13T12:18:15;3.57;;;3.47;;
4089;SDS011;2059;48.538;12.146;2023-07-13T12:23:21;4.10;;;3.80;;
4089;SDS011;2059;48.538;12.146;2023-07-13T12:28:31;3.83;;;3.57;;
4089;SDS011;2059;48.538;12.146;2023-07-13T12:33:39;3.80;;;3.60;;
4089;SDS011;2059;48.538;12.146;2023-07-13T12:38:41;3.93;;;3.77;;
4089;SDS011;2059;48.538;12.146;2023-07-13T12:43:47;3.47;;;3.33;;
4089;SDS011;2059;48.538;12.146;2023-07-13T12:48:50;3.60;;;3.50;;
4089;SDS011;2059;48.538;12.146;2023-07-13T12:53:56;3.90;;;3.80;;
4089;SDS011;2059;48.538;12.146;2023-07-13T12:59:06;3.37;;;3.27;;
4089;SDS011;2059;48.538;12.146;2023-07-13T13:04:19;4.10;;;3.90;;
4089;SDS011;2059;48.538;12.146;2023-07-13T13:09:21;4.00;;;3.90;;
4089;SDS011;2059;48.538;12.146;2023-07-13T13:14:23;3.90;;;3.80;;
4089;SDS011;2059;48.538;12.146;2023-07-13T13:19:27;3.87;;;3.70;;
4089;SDS011;2059;48.538;12.146;2023-07-13T13:24:30;4.33;;;4.13;;
4089;SDS011;2059;48.538;12.146;2023-07-13T13:29:32;4.10;;;3.93;;
4089;SDS011;2059;48.538;12.146;2023-07-13T13:34:40;4.37;;;4.17;;
4089;SDS011;2059;48.538;12.146;2023-07-13T13:39:43;3.83;;;3.73;;
4089;SDS011;2059;48.538;12.146;2023-07-13T13:44:46;3.50;;;3.40;;
4089;SDS011;2059;48.538;12.146;2023-07-13T13:49:50;3.60;;;3.50;;
4089;SDS011;2059;48.538;12.146;2023-07-13T13:54:52;4.23;;;4.03;;
4089;SDS011;2059;48.538;12.146;2023-07-13T13:59:55;3.77;;;3.67;;
4089;SDS011;2059;48.538;12.146;2023-07-13T14:04:59;3.57;;;3.47;;
4089;SDS011;2059;48.538;12.146;2023-07-13T14:10:05;3.90;;;3.70;;
4089;SDS011;2059;48.538;12.146;2023-07-13T14:15:13;3.73;;;3.63;;
4089;SDS011;2059;48.538;12.146;2023-07-13T14:20:22;3.30;;;3.20;;
4089;SDS011;2059;48.538;12.146;2023-07-13T14:25:25;4.03;;;3.93;;
4089;SDS011;2059;48.538;12.146;2023-07-13T14:30:27;3.67;;;3.57;;
4089;SDS011;2059;48.538;12.146;2023-07-13T14:35:30;3.80;;;3.70;;
4089;SDS011;2059;48.538;12.146;2023-07-13T14:40:33;4.17;;;4.07;;
4089;SDS011;2059;48.538;12.146;2023-07-13T14:45:35;3.97;;;3.87;;
4089;SDS011;2059;48.538;12.146;2023-07-13T14:50:42;4.20;;;4.03;;
4089;SDS011;2059;48.538;12.146;2023-07-13T14:55:44;4.07;;;3.87;;
4089;SDS011;2059;48.538;12.146;2023-07-13T15:00:46;3.67;;;3.57;;
4089;SDS011;2059;48.538;12.146;2023-07-13T15:05:51;3.90;;;3.80;;
4089;SDS011;2059;48.538;12.146;2023-07-13T15:10:53;3.50;;;3.30;;
4089;SDS011;2059;48.538;12.146;2023-07-13T15:15:57;3.53;;;3.43;;
4089;SDS011;2059;48.538;12.146;2023-07-13T15:21:00;3.70;;;3.60;;
4089;SDS011;2059;48.538;12.146;2023-07-13T15:26:04;3.87;;;3.77;;
4089;SDS011;2059;48.538;12.146;2023-07-13T15:31:09;3.30;;;3.20;;
4089;SDS011;2059;48.538;12.146;2023-07-13T15:36:23;3.90;;;3.80;;
4089;SDS011;2059;48.538;12.146;2023-07-13T15:41:27;3.60;;;3.50;;
4089;SDS011;2059;48.538;12.146;2023-07-13T15:46:29;4.00;;;3.90;;
4089;SDS011;2059;48.538;12.146;2023-07-13T15:51:32;3.83;;;3.40;;
4089;SDS011;2059;48.538;12.146;2023-07-13T15:56:36;3.47;;;3.37;;
4089;SDS011;2059;48.538;12.146;2023-07-13T16:01:40;3.90;;;3.80;;
4089;SDS011;2059;48.538;12.146;2023-07-13T16:06:44;3.90;;;3.53;;
4089;SDS011;2059;48.538;12.146;2023-07-13T16:11:46;5.00;;;4.80;;
4089;SDS011;2059;48.538;12.146;2023-07-13T16:16:48;3.73;;;3.60;;
4089;SDS011;2059;48.538;12.146;2023-07-13T16:21:51;4.70;;;4.50;;
4089;SDS011;2059;48.538;12.146;2023-07-13T16:26:53;4.50;;;4.20;;
4089;SDS011;2059;48.538;12.146;2023-07-13T16:31:58;4.60;;;4.40;;
4089;SDS011;2059;48.538;12.146;2023-07-13T16:37:03;4.40;;;4.23;;
4089;SDS011;2059;48.538;12.146;2023-07-13T16:42:14;4.23;;;4.13;;
4089;SDS011;2059;48.538;12.146;2023-07-13T16:47:16;5.33;;;5.13;;
4089;SDS011;2059;48.538;12.146;2023-07-13T16:52:33;5.30;;;5.10;;
4089;SDS011;2059;48.538;12.146;2023-07-13T16:57:35;6.70;;;6.50;;
4089;SDS011;2059;48.538;12.146;2023-07-13T17:02:38;4.57;;;4.47;;
4089;SDS011;2059;48.538;12.146;2023-07-13T17:07:41;3.80;;;3.70;;
4089;SDS011;2059;48.538;12.146;2023-07-13T17:12:45;4.83;;;4.63;;
4089;SDS011;2059;48.538;12.146;2023-07-13T17:17:48;5.30;;;5.10;;
4089;SDS011;2059;48.538;12.146;2023-07-13T17:22:53;3.93;;;3.80;;
4089;SDS011;2059;48.538;12.146;2023-07-13T17:27:55;4.37;;;4.17;;
4089;SDS011;2059;48.538;12.146;2023-07-13T17:32:57;4.40;;;4.20;;
4089;SDS011;2059;48.538;12.146;2023-07-13T17:38:02;6.87;;;6.57;;
4089;SDS011;2059;48.538;12.146;2023-07-13T17:43:04;4.27;;;4.07;;
4089;SDS011;2059;48.538;12.146;2023-07-13T17:48:07;4.00;;;3.80;;
4089;SDS011;2059;48.538;12.146;2023-07-13T17:53:14;5.10;;;4.90;;
4089;SDS011;2059;48.538;12.146;2023-07-13T17:58:17;3.47;;;3.27;;
4089;SDS011;2059;48.538;12.146;2023-07-13T18:03:21;4.10;;;3.90;;
4089;SDS011;2059;48.538;12.146;2023-07-13T18:08:33;4.77;;;4.57;;
4089;SDS011;2059;48.538;12.146;2023-07-13T18:13:34;6.17;;;5.87;;
4089;SDS011;2059;48.538;12.146;2023-07-13T18:18:40;4.27;;;4.10;;
4089;SDS011;2059;48.538;12.146;2023-07-13T18:23:43;3.83;;;3.73;;
4089;SDS011;2059;48.538;12.146;2023-07-13T18:28:45;3.97;;;3.87;;
4089;SDS011;2059;48.538;12.146;2023-07-13T18:33:48;4.10;;;3.90;;
4089;SDS011;2059;48.538;12.146;2023-07-13T18:38:54;3.80;;;3.70;;
4089;SDS011;2059;48.538;12.146;2023-07-13T18:43:56;3.83;;;3.73;;
4089;SDS011;2059;48.538;12.146;2023-07-13T18:48:59;4.47;;;4.17;;
4089;SDS011;2059;48.538;12.146;2023-07-13T18:54:02;7.03;;;6.70;;
4089;SDS011;2059;48.538;12.146;2023-07-13T18:59:06;6.80;;;6.40;;
4089;SDS011;2059;48.538;12.146;2023-07-13T19:04:22;6.10;;;5.80;;
4089;SDS011;2059;48.538;12.146;2023-07-13T19:09:30;4.10;;;3.70;;
4089;SDS011;2059;48.538;12.146;2023-07-13T19:14:33;3.60;;;3.50;;
4089;SDS011;2059;48.538;12.146;2023-07-13T19:19:35;3.60;;;3.50;;
4089;SDS011;2059;48.538;12.146;2023-07-13T19:24:38;3.80;;;3.60;;
4089;SDS011;2059;48.538;12.146;2023-07-13T19:29:40;4.00;;;3.90;;
4089;SDS011;2059;48.538;12.146;2023-07-13T19:34:43;5.20;;;5.00;;
4089;SDS011;2059;48.538;12.146;2023-07-13T19:39:46;6.60;;;6.20;;
4089;SDS011;2059;48.538;12.146;2023-07-13T19:44:55;6.33;;;6.03;;
4089;SDS011;2059;48.538;12.146;2023-07-13T19:49:58;3.30;;;3.20;;
4089;SDS011;2059;48.538;12.146;2023-07-13T19:55:04;3.57;;;3.47;;
4089;SDS011;2059;48.538;12.146;2023-07-13T20:00:13;3.87;;;3.70;;
4089;SDS011;2059;48.538;12.146;2023-07-13T20:05:18;3.53;;;3.43;;
4089;SDS011;2059;48.538;12.146;2023-07-13T20:10:23;5.03;;;4.70;;
4089;SDS011;2059;48.538;12.146;2023-07-13T20:15:27;5.00;;;4.60;;
4089;SDS011;2059;48.538;12.146;2023-07-13T20:20:32;3.30;;;3.20;;
4089;SDS011;2059;48.538;12.146;2023-07-13T20:25:38;3.77;;;3.57;;
4089;SDS011;2059;48.538;12.146;2023-07-13T20:30:41;5.40;;;5.20;;
4089;SDS011;2059;48.538;12.146;2023-07-13T20:35:46;5.63;;;5.43;;
4089;SDS011;2059;48.538;12.146;2023-07-13T20:40:50;4.40;;;4.20;;
4089;SDS011;2059;48.538;12.146;2023-07-13T20:45:55;3.50;;;3.40;;
4089;SDS011;2059;48.538;12.146;2023-07-13T20:50:59;4.60;;;4.40;;
4089;SDS011;2059;48.538;12.146;2023-07-13T20:56:08;3.63;;;3.53;;
4089;SDS011;2059;48.538;12.146;2023-07-13T21:01:14;4.10;;;3.90;;
4089;SDS011;2059;48.538;12.146;2023-07-13T21:06:17;3.60;;;3.50;;
4089;SDS011;2059;48.538;12.146;2023-07-13T21:11:21;3.47;;;3.37;;
4089;SDS011;2059;48.538;12.146;2023-07-13T21:16:24;3.57;;;3.33;;
4089;SDS011;2059;48.538;12.146;2023-07-13T21:21:27;3.70;;;3.50;;
4089;SDS011;2059;48.538;12.146;2023-07-13T21:26:32;4.00;;;3.80;;
4089;SDS011;2059;48.538;12.146;2023-07-13T21:31:34;3.80;;;3.60;;
4089;SDS011;2059;48.538;12.146;2023-07-13T21:36:37;4.20;;;4.00;;
4089;SDS011;2059;48.538;12.146;2023-07-13T21:41:40;3.77;;;3.57;;
4089;SDS011;2059;48.538;12.146;2023-07-13T21:46:43;3.67;;;3.57;;
4089;SDS011;2059;48.538;12.146;2023-07-13T21:51:45;4.37;;;4.17;;
4089;SDS011;2059;48.538;12.146;2023-07-13T21:56:48;3.60;;;3.50;;
4089;SDS011;2059;48.538;12.146;2023-07-13T22:01:50;4.47;;;4.27;;
4089;SDS011;2059;48.538;12.146;2023-07-13T22:06:52;3.60;;;3.50;;
4089;SDS011;2059;48.538;12.146;2023-07-13T22:11:57;3.90;;;3.70;;
4089;SDS011;2059;48.538;12.146;2023-07-13T22:16:59;3.70;;;3.50;;
4089;SDS011;2059;48.538;12.146;2023-07-13T22:22:01;6.00;;;5.70;;
4089;SDS011;2059;48.538;12.146;2023-07-13T22:27:08;6.17;;;5.83;;
4089;SDS011;2059;48.538;12.146;2023-07-13T22:32:10;4.30;;;4.10;;
4089;SDS011;2059;48.538;12.146;2023-07-13T22:37:12;3.80;;;3.60;;
4089;SDS011;2059;48.538;12.146;2023-07-13T22:42:16;4.10;;;3.90;;
4089;SDS011;2059;48.538;12.146;2023-07-13T22:47:18;4.30;;;4.10;;
4089;SDS011;2059;48.538;12.146;2023-07-13T22:52:21;4.13;;;3.93;;
4089;SDS011;2059;48.538;12.146;2023-07-13T22:57:25;4.37;;;4.17;;
4089;SDS011;2059;48.538;12.146;2023-07-13T23:02:26;6.47;;;6.17;;
4089;SDS011;2059;48.538;12.146;2023-07-13T23:07:28;6.87;;;6.57;;
4089;SDS011;2059;48.538;12.146;2023-07-13T23:12:32;6.43;;;6.03;;
4089;SDS011;2059;48.538;12.146;2023-07-13T23:17:34;5.77;;;5.47;;
4089;SDS011;2059;48.538;12.146;2023-07-13T23:22:36;6.53;;;6.20;;
4089;SDS011;2059;48.538;12.146;2023-07-13T23:27:40;4.47;;;4.17;;
4089;SDS011;2059;48.538;12.146;2023-07-13T23:32:41;3.80;;;3.60;;
4089;SDS011;2059;48.538;12.146;2023-07-13T23:37:44;4.00;;;3.70;;
4089;SDS011;2059;48.538;12.146;2023-07-13T23:42:49;4.40;;;4.10;;
4089;SDS011;2059;48.538;12.146;2023-07-13T23:47:52;3.27;;;3.17;;
4089;SDS011;2059;48.538;12.146;2023-07-13T23:52:56;3.40;;;3.30;;
4089;SDS011;2059;48.538;12.146;2023-07-13T23:58:01;3.97;;;3.77;;
